Time;durP1;ratioP1;P1;durP2;ratioP2;P2;SDS_P1;SDS_P2;PMS_P1;PMS_P2;Temp;Humidity;BMP_temperature;BMP_pressure;BME280_temperature;BME280_humidity;BME280_pressure;Samples;Min_cycle;Max_cycle;Signal;HPM_P1;HPM_P2
2021/03/08 00:02:09;;;;;;;2.37;1.50;;;22.40;32.00;;;;;;5013426;28;20400;-57
2021/03/08 00:04:35;;;;;;;2.13;1.50;;;22.40;31.90;;;;;;5012849;28;20389;-57
2021/03/08 00:07:01;;;;;;;2.07;1.53;;;22.40;31.90;;;;;;5013219;28;20484;-57
2021/03/08 00:09:26;;;;;;;2.60;1.60;;;22.40;31.80;;;;;;5013341;28;20433;-57
2021/03/08 00:11:52;;;;;;;2.50;1.50;;;22.40;32.40;;;;;;5013301;28;20830;-57
2021/03/08 00:14:17;;;;;;;2.92;1.60;;;22.40;31.80;;;;;;5012957;28;20800;-57
2021/03/08 00:16:43;;;;;;;2.83;1.40;;;22.40;31.70;;;;;;5012948;28;20424;-57
2021/03/08 00:19:09;;;;;;;2.65;1.50;;;22.40;31.70;;;;;;5013127;28;20388;-57
2021/03/08 00:21:34;;;;;;;1.93;1.50;;;22.40;31.70;;;;;;5013237;28;20719;-58
2021/03/08 00:24:00;;;;;;;2.58;1.60;;;22.40;31.60;;;;;;5013234;28;20392;-57
2021/03/08 00:26:26;;;;;;;2.05;1.38;;;22.40;31.60;;;;;;5012485;28;20988;-57
2021/03/08 00:28:51;;;;;;;2.37;1.40;;;22.40;31.60;;;;;;5012849;28;20455;-57
2021/03/08 00:31:17;;;;;;;1.80;1.30;;;22.50;31.60;;;;;;5012721;28;20439;-57
2021/03/08 00:33:43;;;;;;;2.70;1.45;;;22.40;31.50;;;;;;5012830;28;20483;-57
2021/03/08 00:36:08;;;;;;;2.30;1.30;;;22.40;31.50;;;;;;5011194;28;20439;-57
2021/03/08 00:38:34;;;;;;;2.40;1.25;;;22.40;31.50;;;;;;5011988;28;20442;-57
2021/03/08 00:40:59;;;;;;;2.13;1.40;;;22.40;31.40;;;;;;5012648;28;20420;-57
2021/03/08 00:43:25;;;;;;;2.72;1.60;;;22.40;31.40;;;;;;5011394;28;20401;-57
2021/03/08 00:45:51;;;;;;;1.83;1.30;;;22.40;31.30;;;;;;5012496;28;20388;-57
2021/03/08 00:48:16;;;;;;;2.08;1.50;;;22.40;31.50;;;;;;5012456;28;20427;-57
2021/03/08 00:50:42;;;;;;;1.83;1.30;;;22.40;31.40;;;;;;5012064;28;20451;-58
2021/03/08 00:53:08;;;;;;;1.75;1.35;;;22.40;31.30;;;;;;5012524;28;20439;-57
2021/03/08 00:55:34;;;;;;;1.70;1.37;;;22.40;31.40;;;;;;5012753;28;20472;-57
2021/03/08 00:57:59;;;;;;;2.38;1.40;;;22.40;31.30;;;;;;5012328;28;20454;-57
2021/03/08 01:00:28;;;;;;;2.03;1.37;;;22.50;31.20;;;;;;5011755;28;20401;-57
2021/03/08 01:02:53;;;;;;;1.70;1.40;;;22.40;31.20;;;;;;5012169;28;20895;-57
2021/03/08 01:05:20;;;;;;;2.40;1.50;;;22.40;31.20;;;;;;5012285;28;20385;-57
2021/03/08 01:07:46;;;;;;;2.40;1.40;;;22.40;31.20;;;;;;5012278;28;20455;-57
2021/03/08 01:10:15;;;;;;;2.03;1.40;;;22.40;31.20;;;;;;5012256;28;20817;-57
2021/03/08 01:12:41;;;;;;;2.08;1.35;;;22.40;31.20;;;;;;5011834;28;20404;-57
2021/03/08 01:15:08;;;;;;;1.85;1.40;;;22.40;31.30;;;;;;5012186;28;20389;-57
2021/03/08 01:17:35;;;;;;;2.30;1.30;;;22.40;31.20;;;;;;5012052;28;20922;-57
2021/03/08 01:20:01;;;;;;;1.92;1.30;;;22.40;31.30;;;;;;5012025;28;20397;-57
2021/03/08 01:22:26;;;;;;;1.77;1.27;;;22.40;31.10;;;;;;5011600;28;20403;-57
2021/03/08 01:24:52;;;;;;;1.57;1.27;;;22.40;31.10;;;;;;5011925;28;20463;-57
2021/03/08 01:27:18;;;;;;;1.60;1.20;;;22.40;31.10;;;;;;5011883;28;20405;-57
2021/03/08 01:29:43;;;;;;;1.63;1.20;;;22.40;31.10;;;;;;5012078;28;20404;-57
2021/03/08 01:32:09;;;;;;;2.30;1.38;;;22.40;31.00;;;;;;5011699;28;20555;-57
2021/03/08 01:34:34;;;;;;;2.00;1.40;;;22.40;31.10;;;;;;5011415;28;20401;-57
2021/03/08 01:37:00;;;;;;;2.17;1.40;;;22.40;31.00;;;;;;5011706;28;20393;-57
2021/03/08 01:39:27;;;;;;;1.73;1.30;;;22.40;31.10;;;;;;5011912;28;20480;-57
2021/03/08 01:41:53;;;;;;;1.88;1.13;;;22.30;31.00;;;;;;5011849;28;20389;-57
2021/03/08 01:44:19;;;;;;;2.08;1.20;;;22.40;31.00;;;;;;5011841;28;20480;-57
2021/03/08 01:46:45;;;;;;;1.50;1.17;;;22.40;31.00;;;;;;5011316;28;20884;-57
2021/03/08 01:49:10;;;;;;;1.77;1.20;;;22.40;31.00;;;;;;5013150;28;20396;-57
2021/03/08 01:51:36;;;;;;;1.60;1.20;;;22.40;30.90;;;;;;5015844;28;20890;-57
2021/03/08 01:54:02;;;;;;;1.70;1.20;;;22.40;31.00;;;;;;5015884;28;20948;-57
2021/03/08 01:56:28;;;;;;;2.33;1.13;;;22.40;30.90;;;;;;5015288;28;20788;-57
2021/03/08 01:58:53;;;;;;;1.48;1.10;;;22.40;30.90;;;;;;5015720;28;20424;-57
2021/03/08 02:01:19;;;;;;;1.53;1.20;;;22.40;30.90;;;;;;5015712;28;20745;-57
2021/03/08 02:03:45;;;;;;;1.40;1.10;;;22.40;30.90;;;;;;5015740;28;20388;-57
2021/03/08 02:06:10;;;;;;;1.70;1.27;;;22.40;30.90;;;;;;5015590;28;20793;-57
2021/03/08 02:08:38;;;;;;;1.58;1.20;;;22.40;30.80;;;;;;5015008;28;20427;-57
2021/03/08 02:11:04;;;;;;;1.50;1.10;;;22.40;30.80;;;;;;5015539;28;20393;-57
2021/03/08 02:14:11;;;;;;;1.67;1.10;;;22.40;30.80;;;;;;5015418;28;20447;-57
2021/03/08 02:16:53;;;;;;;2.90;1.08;;;22.40;30.90;;;;;;5014913;28;20392;-57
2021/03/08 02:19:54;;;;;;;1.50;1.10;;;22.40;30.80;;;;;;5015334;28;20389;-57
2021/03/08 02:22:28;;;;;;;1.70;1.10;;;22.40;30.80;;;;;;5014715;28;20732;-57
2021/03/08 02:25:21;;;;;;;1.80;1.30;;;22.40;30.80;;;;;;5015076;28;20443;-57
2021/03/08 02:28:27;;;;;;;1.90;1.10;;;22.40;30.80;;;;;;5014966;28;20408;-57
2021/03/08 02:30:55;;;;;;;2.10;1.27;;;22.40;30.80;;;;;;5014902;28;20413;-57
2021/03/08 02:33:24;;;;;;;1.80;1.20;;;22.40;30.80;;;;;;5014895;28;20396;-57
2021/03/08 02:35:55;;;;;;;2.30;1.40;;;22.40;30.80;;;;;;5013655;28;20451;-57
2021/03/08 02:38:25;;;;;;;1.50;1.10;;;22.30;30.80;;;;;;5015335;28;20396;-57
2021/03/08 02:40:58;;;;;;;1.77;1.20;;;22.30;30.70;;;;;;5014903;28;20381;-57
2021/03/08 02:43:40;;;;;;;2.53;1.30;;;22.30;30.70;;;;;;5014885;28;20388;-57
2021/03/08 02:46:27;;;;;;;1.75;1.20;;;22.30;30.70;;;;;;5014892;28;20396;-57
2021/03/08 02:48:57;;;;;;;2.00;1.30;;;22.30;30.70;;;;;;5015007;28;20425;-57
2021/03/08 02:51:25;;;;;;;1.77;1.10;;;22.30;30.70;;;;;;5014823;28;20877;-57
2021/03/08 02:53:54;;;;;;;1.60;1.10;;;22.30;30.70;;;;;;5014519;28;20403;-57
2021/03/08 02:56:26;;;;;;;1.60;1.10;;;22.30;30.70;;;;;;5014506;28;20872;-57
2021/03/08 02:58:54;;;;;;;1.80;1.20;;;22.30;30.70;;;;;;5014494;28;20429;-57
2021/03/08 03:01:20;;;;;;;1.83;1.27;;;22.20;30.60;;;;;;5014123;28;20389;-57
2021/03/08 03:03:57;;;;;;;2.13;1.10;;;22.30;30.70;;;;;;5014588;28;20395;-57
2021/03/08 03:06:30;;;;;;;1.45;1.10;;;22.30;30.70;;;;;;5014458;28;20471;-57
2021/03/08 03:08:59;;;;;;;1.85;1.10;;;22.30;30.70;;;;;;5014245;28;20416;-57
2021/03/08 03:11:26;;;;;;;1.92;1.13;;;22.30;30.70;;;;;;5014490;28;20397;-57
2021/03/08 03:13:53;;;;;;;2.00;1.23;;;22.30;30.70;;;;;;5014343;28;20409;-57
2021/03/08 03:16:21;;;;;;;2.08;1.30;;;22.30;30.60;;;;;;5014344;28;20407;-57
2021/03/08 03:18:51;;;;;;;1.50;1.10;;;22.20;30.60;;;;;;5014025;28;20965;-57
2021/03/08 03:21:18;;;;;;;1.98;1.17;;;22.20;30.60;;;;;;5014180;28;20393;-57
2021/03/08 03:23:48;;;;;;;1.80;1.10;;;22.20;30.60;;;;;;5014087;28;20484;-57
2021/03/08 03:26:15;;;;;;;1.75;1.13;;;22.30;30.60;;;;;;5014114;28;20808;-57
2021/03/08 03:28:42;;;;;;;1.77;1.20;;;22.20;30.50;;;;;;5013522;28;20421;-57
2021/03/08 03:31:08;;;;;;;1.50;1.10;;;22.30;30.60;;;;;;5013988;28;20405;-57
2021/03/08 03:33:34;;;;;;;1.42;1.08;;;22.20;30.50;;;;;;5014006;28;20432;-57
2021/03/08 03:36:00;;;;;;;2.13;1.20;;;22.30;30.60;;;;;;5013334;28;20408;-57
2021/03/08 03:38:27;;;;;;;1.35;1.10;;;22.20;30.50;;;;;;5013263;28;20415;-57
2021/03/08 03:40:53;;;;;;;1.73;1.00;;;22.20;30.50;;;;;;5013169;28;20431;-57
2021/03/08 03:43:19;;;;;;;1.95;1.08;;;22.20;30.60;;;;;;5013559;28;20910;-57
2021/03/08 03:45:45;;;;;;;1.50;1.17;;;22.20;30.50;;;;;;5012274;28;20486;-57
2021/03/08 03:48:10;;;;;;;1.55;0.95;;;22.20;30.50;;;;;;5013683;28;20444;-57
2021/03/08 03:50:37;;;;;;;1.50;1.10;;;22.20;30.50;;;;;;5011837;28;20487;-57
2021/03/08 03:53:07;;;;;;;1.92;1.20;;;22.20;30.60;;;;;;5013529;28;20404;-57
2021/03/08 03:55:33;;;;;;;1.70;1.20;;;22.20;30.60;;;;;;5013584;28;20401;-57
2021/03/08 03:58:20;;;;;;;1.60;1.10;;;22.20;30.50;;;;;;5013552;28;20389;-57
2021/03/08 04:01:21;;;;;;;1.60;1.13;;;22.20;30.60;;;;;;5013051;28;20444;-57
2021/03/08 04:04:12;;;;;;;1.58;1.00;;;22.20;30.50;;;;;;5031032;28;20450;-57
2021/03/08 04:06:42;;;;;;;2.47;1.20;;;22.20;30.50;;;;;;5013788;28;20393;-57
2021/03/08 04:09:09;;;;;;;2.00;1.20;;;22.20;30.60;;;;;;5013155;28;20904;-57
2021/03/08 04:11:38;;;;;;;1.50;1.00;;;22.20;30.80;;;;;;5012525;28;20396;-57
2021/03/08 04:14:05;;;;;;;3.25;1.30;;;22.20;30.90;;;;;;5013064;28;20514;-57
2021/03/08 04:16:33;;;;;;;2.53;1.20;;;22.20;30.80;;;;;;5015072;28;20400;-57
2021/03/08 04:19:01;;;;;;;2.70;1.33;;;22.20;30.90;;;;;;5024346;28;20405;-57
2021/03/08 04:21:28;;;;;;;1.80;1.20;;;22.30;30.50;;;;;;5026172;28;20411;-59
2021/03/08 04:23:56;;;;;;;3.30;1.30;;;22.30;31.50;;;;;;5024278;28;20394;-57
2021/03/08 04:26:22;;;;;;;3.30;1.30;;;22.30;31.50;;;;;;5029636;28;20640;-57
2021/03/08 04:28:50;;;;;;;2.90;1.30;;;22.30;31.20;;;;;;5017397;28;20799;-58
2021/03/08 04:31:17;;;;;;;4.05;1.42;;;22.30;32.00;;;;;;5015842;28;20933;-57
2021/03/08 04:33:46;;;;;;;4.82;1.42;;;22.30;32.90;;;;;;5027860;28;20407;-57
2021/03/08 04:36:13;;;;;;;4.68;1.40;;;22.40;32.80;;;;;;5036578;28;20407;-57
2021/03/08 04:38:43;;;;;;;5.53;1.50;;;22.40;32.10;;;;;;5023552;28;20389;-57
2021/03/08 04:41:11;;;;;;;5.88;1.42;;;22.40;32.90;;;;;;5031288;28;20387;-57
2021/03/08 04:43:37;;;;;;;8.25;1.48;;;22.40;32.80;;;;;;5029954;28;20391;-57
2021/03/08 04:46:04;;;;;;;3.92;1.52;;;22.40;32.60;;;;;;5031824;28;20740;-57
2021/03/08 04:48:31;;;;;;;4.35;1.60;;;22.50;32.30;;;;;;5031779;28;20521;-57
2021/03/08 04:50:57;;;;;;;5.38;1.50;;;22.40;32.50;;;;;;5032084;28;20388;-57
2021/03/08 04:53:23;;;;;;;4.45;1.30;;;22.50;31.90;;;;;;5031591;28;20395;-57
2021/03/08 04:55:51;;;;;;;3.80;1.48;;;22.50;32.20;;;;;;5031237;28;20943;-57
2021/03/08 04:58:17;;;;;;;5.70;1.58;;;22.40;31.30;;;;;;5030067;28;20413;-57
2021/03/08 05:00:43;;;;;;;3.75;1.45;;;22.40;31.30;;;;;;5029496;28;20379;-57
2021/03/08 05:03:11;;;;;;;4.97;1.40;;;22.40;31.00;;;;;;5030191;28;20383;-57
2021/03/08 05:05:38;;;;;;;6.65;1.50;;;22.30;30.90;;;;;;5030139;28;20384;-58
2021/03/08 05:08:09;;;;;;;6.32;1.48;;;22.30;31.10;;;;;;5028973;28;20414;-57
2021/03/08 05:10:37;;;;;;;6.53;1.55;;;22.30;31.30;;;;;;5044806;28;20797;-57
2021/03/08 05:13:08;;;;;;;7.07;1.70;;;22.30;31.30;;;;;;5031713;28;20482;-58
2021/03/08 05:15:35;;;;;;;6.40;2.03;;;22.30;31.30;;;;;;5031648;28;20387;-58
2021/03/08 05:18:03;;;;;;;7.15;2.05;;;22.30;31.40;;;;;;5031661;28;20387;-57
2021/03/08 05:20:30;;;;;;;9.52;2.35;;;22.30;31.10;;;;;;5031825;28;20379;-57
2021/03/08 05:22:56;;;;;;;8.27;2.10;;;22.30;31.20;;;;;;5031373;28;20393;-57
2021/03/08 05:25:23;;;;;;;6.15;1.90;;;22.30;31.70;;;;;;5031671;28;20387;-58
2021/03/08 05:27:49;;;;;;;8.00;1.80;;;22.30;31.10;;;;;;5031443;28;20415;-57
2021/03/08 05:30:17;;;;;;;7.47;1.80;;;22.30;31.00;;;;;;5029827;28;20771;-59
2021/03/08 05:32:51;;;;;;;8.15;1.70;;;22.20;30.80;;;;;;5017135;28;20958;-62
2021/03/08 05:35:17;;;;;;;4.78;1.60;;;22.20;30.70;;;;;;5020875;28;21010;-58
2021/03/08 05:37:43;;;;;;;4.53;1.50;;;22.20;30.70;;;;;;5018867;28;20397;-57
2021/03/08 05:40:21;;;;;;;6.40;1.80;;;22.20;30.60;;;;;;5020237;28;20392;-57
2021/03/08 05:42:53;;;;;;;4.15;1.48;;;22.20;30.60;;;;;;5021689;28;20978;-58
2021/03/08 05:45:25;;;;;;;4.32;1.40;;;22.20;30.60;;;;;;5021313;28;20464;-58
2021/03/08 05:48:20;;;;;;;3.15;1.60;;;22.20;30.50;;;;;;5020134;28;20431;-57
2021/03/08 05:51:32;;;;;;;3.92;1.40;;;22.20;30.60;;;;;;5021571;28;20765;-58
2021/03/08 05:54:00;;;;;;;7.78;1.90;;;22.20;30.50;;;;;;5011944;28;20396;-58
2021/03/08 05:57:03;;;;;;;3.90;1.50;;;22.20;30.50;;;;;;5013115;28;20863;-58
2021/03/08 05:59:42;;;;;;;6.97;1.90;;;22.20;30.60;;;;;;5021981;28;20389;-57
2021/03/08 06:02:29;;;;;;;5.13;1.70;;;22.20;30.80;;;;;;5041153;28;20399;-58
2021/03/08 06:05:23;;;;;;;7.28;3.17;;;22.10;30.90;;;;;;5025795;28;20922;-58
2021/03/08 06:08:25;;;;;;;6.57;2.60;;;22.20;30.70;;;;;;5009298;28;20474;-57
2021/03/08 06:11:18;;;;;;;6.38;2.45;;;22.20;30.60;;;;;;5008486;28;20409;-57
2021/03/08 06:13:51;;;;;;;3.78;2.22;;;22.20;30.60;;;;;;5009215;28;20377;-57
2021/03/08 06:16:24;;;;;;;5.88;2.35;;;22.20;30.60;;;;;;5009409;28;20397;-57
2021/03/08 06:18:52;;;;;;;4.65;2.00;;;22.20;30.60;;;;;;5009021;28;20443;-57
2021/03/08 06:21:19;;;;;;;4.45;2.00;;;22.20;30.60;;;;;;5024576;28;20428;-58
2021/03/08 06:23:46;;;;;;;3.70;1.93;;;22.20;30.70;;;;;;5010776;28;20427;-57
2021/03/08 06:26:13;;;;;;;4.45;1.98;;;22.10;30.60;;;;;;5011347;28;20393;-57
2021/03/08 06:28:40;;;;;;;3.65;1.83;;;22.20;30.70;;;;;;5010685;28;20456;-57
2021/03/08 06:31:07;;;;;;;2.97;1.80;;;22.10;30.70;;;;;;5011163;28;20409;-57
2021/03/08 06:33:35;;;;;;;3.13;1.77;;;22.10;30.70;;;;;;5011449;28;20433;-57
2021/03/08 06:36:01;;;;;;;2.90;1.65;;;22.10;30.70;;;;;;5013647;28;20415;-57
2021/03/08 06:38:31;;;;;;;2.87;1.80;;;22.10;30.70;;;;;;5014801;28;20869;-57
2021/03/08 06:41:00;;;;;;;3.05;1.90;;;22.10;30.70;;;;;;5014389;28;20491;-58
2021/03/08 06:43:28;;;;;;;3.45;1.90;;;22.10;30.70;;;;;;5014996;28;20429;-58
2021/03/08 06:45:55;;;;;;;3.67;1.73;;;22.10;30.70;;;;;;5014784;28;20869;-57
2021/03/08 06:48:22;;;;;;;3.70;1.80;;;22.10;30.70;;;;;;5014786;28;20515;-57
2021/03/08 06:51:05;;;;;;;3.85;2.10;;;22.10;30.70;;;;;;5014165;28;20404;-58
2021/03/08 06:53:31;;;;;;;3.15;2.08;;;22.10;30.70;;;;;;5015115;28;20386;-57
2021/03/08 06:56:28;;;;;;;2.43;1.70;;;22.10;30.70;;;;;;5014635;28;20393;-57
2021/03/08 06:59:08;;;;;;;2.75;1.80;;;22.10;30.70;;;;;;5014172;28;20456;-57
2021/03/08 07:01:36;;;;;;;2.85;1.80;;;22.10;30.70;;;;;;5013294;28;21016;-57
2021/03/08 07:04:02;;;;;;;3.05;1.73;;;22.00;30.70;;;;;;5014703;28;20399;-58
2021/03/08 07:06:28;;;;;;;3.03;1.83;;;22.00;30.70;;;;;;5014495;28;20474;-57
2021/03/08 07:09:11;;;;;;;3.10;1.70;;;22.00;30.70;;;;;;5013954;28;20769;-58
2021/03/08 07:11:37;;;;;;;2.25;1.80;;;22.00;30.70;;;;;;5014608;28;20400;-58
2021/03/08 07:14:21;;;;;;;2.78;1.88;;;22.00;30.70;;;;;;5014542;28;20511;-57
2021/03/08 07:16:46;;;;;;;2.78;1.75;;;22.00;30.80;;;;;;5013870;28;20448;-57
2021/03/08 07:19:12;;;;;;;2.93;1.80;;;22.00;31.00;;;;;;5014437;28;20393;-57
2021/03/08 07:21:38;;;;;;;4.60;1.88;;;22.00;30.80;;;;;;5014328;28;20388;-57
2021/03/08 07:24:09;;;;;;;2.47;1.95;;;22.00;30.80;;;;;;5013916;28;20397;-57
2021/03/08 07:26:35;;;;;;;2.53;1.90;;;22.00;30.80;;;;;;5013389;28;20753;-59
2021/03/08 07:29:12;;;;;;;3.17;2.15;;;22.00;30.80;;;;;;5013485;28;20428;-58
2021/03/08 07:31:40;;;;;;;3.25;1.90;;;22.00;30.80;;;;;;5013823;28;20413;-58
2021/03/08 07:34:09;;;;;;;2.58;2.00;;;22.00;30.80;;;;;;5013803;28;20408;-57
2021/03/08 07:36:36;;;;;;;2.47;1.90;;;21.90;30.70;;;;;;5013969;28;20443;-58
2021/03/08 07:39:13;;;;;;;2.50;2.00;;;21.90;30.80;;;;;;5013204;28;20389;-58
2021/03/08 07:42:00;;;;;;;2.63;1.80;;;21.90;30.70;;;;;;5013714;28;20943;-57
2021/03/08 07:44:27;;;;;;;2.60;1.80;;;21.90;30.80;;;;;;5013785;28;20796;-58
2021/03/08 07:46:54;;;;;;;2.97;1.90;;;21.90;30.80;;;;;;5012096;28;20407;-57
2021/03/08 07:49:36;;;;;;;3.25;2.00;;;21.90;30.70;;;;;;5028871;28;20892;-57
2021/03/08 07:52:10;;;;;;;2.58;1.92;;;21.90;30.80;;;;;;5013498;28;20389;-57
2021/03/08 07:54:55;;;;;;;2.50;1.83;;;21.90;30.80;;;;;;5013842;28;20396;-57
2021/03/08 07:57:21;;;;;;;2.50;1.88;;;21.90;30.80;;;;;;5013525;28;20388;-57
2021/03/08 07:59:47;;;;;;;2.17;1.75;;;21.90;30.80;;;;;;5013515;28;20405;-57
2021/03/08 08:02:13;;;;;;;2.30;1.80;;;21.90;30.80;;;;;;5013391;28;20399;-57
2021/03/08 08:04:39;;;;;;;2.40;1.90;;;21.90;30.80;;;;;;5013105;28;20840;-58
2021/03/08 08:07:08;;;;;;;2.60;1.88;;;21.80;30.70;;;;;;5013292;28;20393;-57
2021/03/08 08:09:40;;;;;;;2.78;1.77;;;21.90;30.70;;;;;;5012040;28;20404;-57
2021/03/08 08:12:18;;;;;;;2.45;1.80;;;21.90;30.80;;;;;;5012821;28;20549;-57
2021/03/08 08:14:44;;;;;;;2.13;1.70;;;21.80;30.70;;;;;;5012778;28;20468;-58
2021/03/08 08:17:15;;;;;;;2.05;1.70;;;21.80;30.70;;;;;;5013215;28;20393;-58
2021/03/08 08:19:46;;;;;;;2.50;1.77;;;21.80;30.70;;;;;;5013126;28;20381;-58
2021/03/08 08:22:21;;;;;;;3.78;1.90;;;21.80;30.70;;;;;;5013058;28;20446;-57
2021/03/08 08:24:54;;;;;;;2.30;1.77;;;21.80;30.70;;;;;;5011896;28;20397;-57
2021/03/08 08:27:21;;;;;;;2.33;1.60;;;21.80;30.60;;;;;;5012711;28;20404;-57
2021/03/08 08:29:49;;;;;;;2.30;1.80;;;21.80;30.60;;;;;;5028250;28;20405;-57
2021/03/08 08:32:15;;;;;;;2.35;1.70;;;21.80;30.60;;;;;;5027963;28;20412;-57
2021/03/08 08:34:46;;;;;;;2.28;1.70;;;21.80;30.60;;;;;;5012385;28;20946;-58
2021/03/08 08:37:18;;;;;;;2.05;1.60;;;21.80;30.60;;;;;;5012919;28;20455;-57
2021/03/08 08:39:50;;;;;;;2.17;1.70;;;21.80;30.70;;;;;;5012365;28;20408;-57
2021/03/08 08:42:16;;;;;;;2.67;1.70;;;21.80;30.60;;;;;;5012122;28;20409;-57
2021/03/08 08:44:43;;;;;;;2.58;1.60;;;21.80;30.70;;;;;;5011948;28;20801;-58
2021/03/08 08:47:27;;;;;;;2.28;1.70;;;21.80;30.70;;;;;;5011174;28;20397;-57
2021/03/08 08:49:55;;;;;;;2.30;1.63;;;21.70;30.60;;;;;;5012524;28;20393;-57
2021/03/08 08:52:56;;;;;;;2.10;1.88;;;21.70;30.60;;;;;;5012613;28;20480;-57
2021/03/08 08:55:33;;;;;;;2.45;1.70;;;21.70;30.60;;;;;;5010090;28;20393;-57
2021/03/08 08:58:22;;;;;;;2.30;1.83;;;21.80;30.70;;;;;;5011678;28;20393;-57
2021/03/08 09:01:22;;;;;;;2.53;1.70;;;21.70;30.60;;;;;;5012108;28;20384;-57
2021/03/08 09:03:51;;;;;;;2.38;1.90;;;21.70;30.60;;;;;;5012403;28;20481;-57
2021/03/08 09:06:39;;;;;;;2.20;1.60;;;21.80;30.70;;;;;;5012318;28;20389;-58
2021/03/08 09:09:05;;;;;;;2.25;1.70;;;21.70;30.60;;;;;;5011937;28;20421;-57
2021/03/08 09:11:41;;;;;;;2.30;1.80;;;21.70;30.60;;;;;;5012207;28;20389;-57
2021/03/08 09:14:24;;;;;;;2.00;1.60;;;21.70;30.60;;;;;;5012096;28;20424;-57
2021/03/08 09:17:14;;;;;;;2.15;1.73;;;21.70;30.60;;;;;;5011803;28;20443;-57
2021/03/08 09:19:42;;;;;;;2.30;1.70;;;21.70;30.60;;;;;;5012064;28;20416;-57
2021/03/08 09:22:23;;;;;;;2.13;1.67;;;21.70;30.60;;;;;;5012037;28;20405;-57
2021/03/08 09:25:09;;;;;;;2.03;1.75;;;21.70;30.60;;;;;;5011400;28;20427;-57
2021/03/08 09:27:46;;;;;;;2.05;1.58;;;21.70;30.60;;;;;;5011306;28;20417;-57
2021/03/08 09:30:20;;;;;;;1.73;1.50;;;21.70;30.60;;;;;;5011785;28;20900;-57
2021/03/08 09:33:13;;;;;;;2.00;1.60;;;21.70;30.60;;;;;;5011233;28;20877;-58
2021/03/08 09:35:41;;;;;;;1.83;1.40;;;21.70;30.60;;;;;;5011754;28;20455;-57
2021/03/08 09:38:12;;;;;;;1.75;1.58;;;21.70;30.60;;;;;;5026986;28;20488;-57
2021/03/08 09:40:40;;;;;;;2.30;1.58;;;21.70;30.60;;;;;;5011522;28;20392;-57
2021/03/08 09:43:26;;;;;;;1.88;1.60;;;21.70;30.60;;;;;;5011727;28;20376;-57
2021/03/08 09:46:13;;;;;;;2.05;1.77;;;21.70;30.60;;;;;;5011814;28;20385;-57
2021/03/08 09:48:41;;;;;;;2.20;1.85;;;21.70;30.60;;;;;;5010362;28;20425;-57
2021/03/08 09:51:14;;;;;;;2.35;1.80;;;21.70;30.50;;;;;;5011738;28;20392;-57
2021/03/08 09:53:44;;;;;;;2.10;1.80;;;21.70;30.50;;;;;;5011740;28;20424;-57
2021/03/08 09:56:13;;;;;;;2.40;1.60;;;21.70;30.50;;;;;;5011223;28;20423;-57
2021/03/08 09:58:40;;;;;;;2.38;1.90;;;21.70;30.50;;;;;;5011245;28;20396;-58
2021/03/08 10:01:15;;;;;;;2.33;1.70;;;21.70;30.50;;;;;;5011036;28;20397;-58
2021/03/08 10:03:41;;;;;;;2.10;1.80;;;21.70;30.50;;;;;;5011586;28;20477;-57
2021/03/08 10:06:07;;;;;;;2.10;1.70;;;21.70;30.40;;;;;;5011496;28;20421;-57
2021/03/08 10:08:33;;;;;;;2.40;1.93;;;21.70;30.40;;;;;;5011512;28;20896;-58
2021/03/08 10:10:59;;;;;;;2.53;1.80;;;21.70;30.40;;;;;;5013507;28;20427;-57
2021/03/08 10:13:25;;;;;;;2.50;2.00;;;21.70;30.30;;;;;;5015506;28;20872;-57
2021/03/08 10:15:51;;;;;;;2.38;1.88;;;21.70;30.30;;;;;;5015173;28;20896;-58
2021/03/08 10:18:19;;;;;;;2.15;1.60;;;21.70;30.30;;;;;;5015187;28;20384;-57
2021/03/08 10:20:49;;;;;;;2.20;1.83;;;21.70;30.30;;;;;;5014976;28;20397;-58
2021/03/08 10:23:17;;;;;;;2.40;1.60;;;21.70;30.30;;;;;;5015250;28;20400;-57
2021/03/08 10:25:43;;;;;;;2.20;1.70;;;21.70;30.40;;;;;;5015195;28;20384;-57
2021/03/08 10:28:08;;;;;;;2.22;1.75;;;21.80;30.40;;;;;;5015074;28;20912;-58
2021/03/08 10:30:34;;;;;;;2.05;1.60;;;21.80;30.40;;;;;;5015034;28;20466;-57
2021/03/08 10:33:03;;;;;;;2.00;1.63;;;21.80;30.40;;;;;;5014594;28;20483;-57
2021/03/08 10:35:40;;;;;;;2.10;1.70;;;21.80;30.30;;;;;;5015176;28;20377;-57
2021/03/08 10:38:06;;;;;;;2.40;1.63;;;21.80;30.30;;;;;;5015270;28;20396;-57
2021/03/08 10:40:32;;;;;;;2.20;1.65;;;21.80;30.20;;;;;;5015002;28;20396;-57
2021/03/08 10:42:58;;;;;;;2.10;1.60;;;21.80;30.20;;;;;;5014389;28;20389;-58
2021/03/08 10:45:26;;;;;;;2.10;1.50;;;21.80;30.10;;;;;;5014918;28;20415;-57
2021/03/08 10:48:11;;;;;;;2.00;1.50;;;21.90;30.20;;;;;;5014689;28;20893;-57
2021/03/08 10:50:50;;;;;;;2.10;1.60;;;21.90;30.10;;;;;;5014914;28;20899;-57
2021/03/08 10:53:16;;;;;;;1.92;1.40;;;21.90;30.10;;;;;;5014808;28;20392;-57
2021/03/08 10:55:42;;;;;;;2.00;1.60;;;21.90;30.00;;;;;;5014527;28;20951;-57
2021/03/08 10:58:09;;;;;;;2.10;1.63;;;21.90;30.00;;;;;;5014616;28;20500;-57
2021/03/08 11:00:35;;;;;;;2.38;1.50;;;21.90;30.00;;;;;;5014600;28;20468;-57
2021/03/08 11:03:01;;;;;;;2.10;1.60;;;21.90;30.00;;;;;;5013977;28;20483;-58
2021/03/08 11:05:29;;;;;;;1.90;1.50;;;21.90;30.00;;;;;;5014303;28;20385;-57
2021/03/08 11:07:56;;;;;;;1.73;1.40;;;21.90;30.00;;;;;;5014555;28;20405;-57
2021/03/08 11:10:36;;;;;;;2.13;1.50;;;21.90;30.00;;;;;;5014391;28;20483;-57
2021/03/08 11:13:08;;;;;;;1.95;1.40;;;21.90;30.00;;;;;;5013903;28;20381;-57
2021/03/08 11:15:38;;;;;;;1.77;1.35;;;21.90;30.00;;;;;;5014066;28;20385;-57
2021/03/08 11:18:24;;;;;;;1.70;1.40;;;21.90;30.00;;;;;;5013724;28;20386;-57
2021/03/08 11:20:49;;;;;;;1.90;1.58;;;21.90;30.00;;;;;;5013492;28;20945;-58
2021/03/08 11:23:25;;;;;;;2.00;1.50;;;21.90;30.00;;;;;;5014063;28;20439;-58
2021/03/08 11:25:50;;;;;;;1.83;1.47;;;21.90;30.00;;;;;;5014035;28;20388;-57
2021/03/08 11:28:17;;;;;;;1.80;1.50;;;21.80;30.00;;;;;;5014053;28;20428;-57
2021/03/08 11:30:45;;;;;;;1.70;1.40;;;21.90;30.00;;;;;;5013645;28;20471;-57
2021/03/08 11:33:11;;;;;;;1.92;1.45;;;21.90;30.00;;;;;;5013904;28;20423;-58
2021/03/08 11:35:39;;;;;;;1.93;1.40;;;21.90;30.00;;;;;;5013857;28;20741;-57
2021/03/08 11:38:13;;;;;;;1.60;1.40;;;21.90;30.00;;;;;;5013845;28;20447;-58
2021/03/08 11:40:45;;;;;;;1.70;1.40;;;21.90;30.00;;;;;;5014042;28;20392;-57
2021/03/08 11:43:12;;;;;;;1.50;1.30;;;22.00;29.90;;;;;;5013439;28;20480;-58
2021/03/08 11:45:37;;;;;;;2.35;1.52;;;22.00;29.90;;;;;;5029021;28;20396;-58
2021/03/08 11:48:04;;;;;;;1.70;1.27;;;22.00;29.90;;;;;;5013637;28;20412;-57
2021/03/08 11:50:31;;;;;;;1.67;1.40;;;22.00;29.80;;;;;;5012437;28;20880;-58
2021/03/08 11:52:57;;;;;;;1.88;1.30;;;22.00;29.70;;;;;;5013069;28;20427;-57
2021/03/08 11:55:23;;;;;;;1.87;1.47;;;22.00;29.70;;;;;;5013648;28;20893;-57
2021/03/08 11:57:50;;;;;;;1.75;1.33;;;22.00;29.70;;;;;;5013538;28;20385;-57
2021/03/08 12:00:19;;;;;;;2.05;1.55;;;22.10;29.70;;;;;;5013422;28;20861;-57
2021/03/08 12:02:44;;;;;;;1.50;1.20;;;22.00;29.80;;;;;;5013356;28;20996;-57
2021/03/08 12:05:10;;;;;;;1.92;1.50;;;22.00;29.80;;;;;;5013129;28;20399;-57
2021/03/08 12:07:36;;;;;;;1.83;1.40;;;22.00;29.80;;;;;;5011960;28;20742;-57
2021/03/08 12:10:08;;;;;;;1.90;1.40;;;22.00;29.80;;;;;;5013203;28;20443;-57
2021/03/08 12:12:33;;;;;;;1.75;1.40;;;22.00;29.80;;;;;;5013539;28;20385;-58
2021/03/08 12:14:59;;;;;;;1.70;1.33;;;22.00;29.80;;;;;;5012726;28;20404;-58
2021/03/08 12:17:25;;;;;;;1.60;1.20;;;22.00;29.70;;;;;;5013205;28;20393;-57
2021/03/08 12:19:51;;;;;;;4.47;2.20;;;22.00;29.80;;;;;;5013043;28;20881;-57
2021/03/08 12:22:17;;;;;;;2.40;1.60;;;22.00;29.50;;;;;;5013059;28;20415;-57
2021/03/08 12:24:42;;;;;;;2.03;1.33;;;22.00;29.40;;;;;;5012915;28;20423;-57
2021/03/08 12:27:08;;;;;;;1.85;1.40;;;22.10;29.40;;;;;;5012589;28;20433;-57
2021/03/08 12:29:34;;;;;;;1.90;1.40;;;22.10;29.40;;;;;;5012877;28;20443;-57
2021/03/08 12:32:00;;;;;;;2.22;1.33;;;22.10;29.40;;;;;;5012578;28;20911;-57
2021/03/08 12:34:26;;;;;;;6.38;3.00;;;22.10;29.40;;;;;;5012439;28;20419;-57
2021/03/08 12:36:52;;;;;;;4.10;3.17;;;22.10;29.10;;;;;;5012187;28;20806;-57
2021/03/08 12:39:18;;;;;;;3.38;2.30;;;22.10;28.90;;;;;;5012762;28;20442;-57
2021/03/08 12:41:44;;;;;;;5.75;2.28;;;22.00;28.60;;;;;;5012053;28;20389;-57
2021/03/08 12:44:10;;;;;;;6.05;2.00;;;22.00;28.90;;;;;;5018399;28;20521;-58
2021/03/08 12:46:36;;;;;;;8.00;2.00;;;22.20;31.50;;;;;;5030501;28;20482;-57
2021/03/08 12:49:01;;;;;;;7.28;2.10;;;22.60;29.80;;;;;;5045465;28;20427;-58
2021/03/08 12:51:27;;;;;;;4.13;1.98;;;22.80;29.30;;;;;;5009882;28;20397;-58
2021/03/08 12:53:53;;;;;;;4.87;1.90;;;22.90;29.10;;;;;;5008410;28;20913;-57
2021/03/08 12:56:18;;;;;;;4.55;2.03;;;22.90;28.80;;;;;;5020488;28;20381;-58
2021/03/08 12:58:44;;;;;;;6.20;2.00;;;23.00;29.10;;;;;;5011889;28;20480;-58
2021/03/08 13:01:09;;;;;;;5.13;2.38;;;23.00;28.90;;;;;;5011568;28;20388;-58
2021/03/08 13:03:35;;;;;;;5.13;2.00;;;23.10;29.10;;;;;;5011656;28;20749;-58
2021/03/08 13:06:01;;;;;;;3.88;2.15;;;23.00;29.00;;;;;;5011880;28;20388;-58